RPVD

Details ICAO RPVD (DGT)
Name DUMAGUETE
Region Philippines
Timezone Asia/Manila (UTC+8.0)
Plans Departing 9
Arriving 7
Stats Elevation 15 ft / 5 m (AMSL)
Location 9.333714° 123.300473°
Runways 1
Magnetic Variation 1.225° W
Sunrise 2017-12-16 21:56:43 UTC / 2017-12-17 05:56:43 Local
Sunset 2017-12-17 09:31:32 UTC / 2017-12-17 17:31:32 Local
Advertisement - Login to hide

Runways

ID Width Length Bearing (true) Bearing (mag) Surface Threshold Offset Overrun Length
09 118 ft / 36 m 6,131 ft / 1,869 m 92.97° 94.19° Asphalt 0 ft / 0 m 182 ft / 55 m
27 118 ft / 36 m 6,131 ft / 1,869 m 272.98° 274.20° Asphalt 0 ft / 0 m 0 ft / 0 m

Map

Weather


0- 5 10 15 20 25 30 35+ Temperature / ° C

Clouds and Precipitation
Forecast for 2017-12-17 06:00 UTC. Updated 2 hours ago

Ground ~20,000 ft ~40,000 ft Winds

METAR

RPVD 170200Z 04004KT 9999 VCSH SCT015 BKN220 29/25 Q1007 RMK A2974 VCSH W

TAF

Not found

Frequencies

Tower 123.50 MHz TWR
Tower 129.70 MHz TWR
Warning: Do not use this data for real-world aviation or navigation. No guarantee of current accuracy is given.